Time;durP1;ratioP1;P1;durP2;ratioP2;P2;SDS_P1;SDS_P2;PMS_P1;PMS_P2;Temp;Humidity;BMP_temperature;BMP_pressure;BME280_temperature;BME280_humidity;BME280_pressure;Samples;Min_cycle;Max_cycle;Signal;HPM_P1;HPM_P2
2023/03/11 00:00:59;;;;;;;6.63;1.27;;;0.10;99.90;;;;;;5105851;28;20048;-78
2023/03/11 00:03:26;;;;;;;7.17;1.40;;;0.20;99.90;;;;;;5110674;28;20042;-78
2023/03/11 00:05:53;;;;;;;7.03;1.20;;;0.20;99.90;;;;;;5090875;28;20040;-79
2023/03/11 00:08:22;;;;;;;4.97;1.07;;;0.10;99.90;;;;;;5105209;28;20073;-79
2023/03/11 00:10:52;;;;;;;4.73;1.20;;;0.10;99.90;;;;;;5103046;28;20487;-79
2023/03/11 00:13:18;;;;;;;3.87;1.37;;;0.10;99.90;;;;;;5107179;28;20039;-79
2023/03/11 00:15:47;;;;;;;4.43;1.10;;;0.10;99.90;;;;;;5103913;28;20035;-80
2023/03/11 00:18:13;;;;;;;7.73;1.20;;;0.10;99.90;;;;;;5104978;28;20047;-80
2023/03/11 00:20:41;;;;;;;8.60;1.33;;;0.10;99.90;;;;;;5109388;28;20460;-79
2023/03/11 00:23:07;;;;;;;4.63;1.10;;;0.10;99.90;;;;;;5109231;28;20104;-80
2023/03/11 00:25:35;;;;;;;9.73;1.60;;;0.10;99.90;;;;;;5108696;28;20039;-79
2023/03/11 00:28:02;;;;;;;5.90;0.90;;;0.10;99.90;;;;;;5088514;28;20036;-79
2023/03/11 00:30:28;;;;;;;7.30;1.10;;;0.00;99.90;;;;;;5110495;28;20040;-79
2023/03/11 00:32:56;;;;;;;3.07;0.90;;;0.00;99.90;;;;;;5100766;28;20460;-79
2023/03/11 00:35:31;;;;;;;1.20;0.70;;;0.00;99.90;;;;;;5107753;28;20057;-79
2023/03/11 00:37:59;;;;;;;4.47;1.10;;;0.00;99.90;;;;;;5096593;28;20449;-80
2023/03/11 00:40:27;;;;;;;5.37;1.40;;;0.00;99.90;;;;;;5109733;28;20498;-80
2023/03/11 00:42:53;;;;;;;2.30;0.90;;;0.00;99.90;;;;;;5144105;27;20035;-80
2023/03/11 00:45:21;;;;;;;3.20;0.90;;;0.00;99.90;;;;;;5144678;27;20375;-80
2023/03/11 00:47:46;;;;;;;3.20;0.67;;;-0.10;99.90;;;;;;5109594;28;20032;-80
2023/03/11 00:50:18;;;;;;;3.93;1.53;;;0.00;99.90;;;;;;5140192;27;20032;-79
2023/03/11 00:52:46;;;;;;;5.73;0.80;;;0.00;99.90;;;;;;5102974;28;20060;-79
2023/03/11 00:55:15;;;;;;;4.30;0.90;;;0.00;99.90;;;;;;5102574;28;20043;-79
2023/03/11 00:57:41;;;;;;;6.97;1.40;;;0.00;99.90;;;;;;5106177;28;20452;-79
2023/03/11 01:00:10;;;;;;;3.13;1.00;;;0.00;99.90;;;;;;5103647;28;20462;-79
2023/03/11 01:02:36;;;;;;;33.17;3.63;;;-0.10;99.90;;;;;;5103950;28;20078;-79
2023/03/11 01:05:02;;;;;;;3.07;0.90;;;-0.10;99.90;;;;;;5105211;28;20186;-80
2023/03/11 01:07:27;;;;;;;2.63;0.80;;;-0.20;99.90;;;;;;5138953;27;20107;-80
2023/03/11 01:09:53;;;;;;;3.17;0.87;;;-0.20;99.90;;;;;;5110064;28;20516;-79
2023/03/11 01:12:19;;;;;;;2.47;0.80;;;-0.20;99.90;;;;;;5106751;28;20122;-79
2023/03/11 01:14:44;;;;;;;5.37;0.97;;;-0.20;99.90;;;;;;5138575;27;20043;-80
2023/03/11 01:17:10;;;;;;;3.70;1.00;;;-0.20;99.90;;;;;;5109890;28;20040;-79
2023/03/11 01:19:35;;;;;;;1.67;0.80;;;-0.30;99.90;;;;;;5102470;28;20047;-79
2023/03/11 01:22:01;;;;;;;1.73;0.63;;;-0.30;99.90;;;;;;5140980;27;20039;-79
2023/03/11 01:24:26;;;;;;;3.77;1.47;;;-0.30;99.90;;;;;;5086906;28;20406;-79
2023/03/11 01:26:52;;;;;;;6.63;0.70;;;-0.30;99.90;;;;;;5140379;27;20119;-79
2023/03/11 01:29:17;;;;;;;7.57;0.90;;;-0.40;99.90;;;;;;5083820;28;20127;-79
2023/03/11 01:31:43;;;;;;;5.20;0.70;;;-0.30;99.90;;;;;;5110033;28;20036;-79
2023/03/11 01:34:08;;;;;;;6.30;0.93;;;-0.40;99.90;;;;;;5135740;27;20047;-80
2023/03/11 01:36:34;;;;;;;2.53;1.07;;;-0.40;99.90;;;;;;5109817;28;20040;-80
2023/03/11 01:38:59;;;;;;;5.23;0.87;;;-0.40;99.90;;;;;;5126826;27;20048;-79
2023/03/11 01:41:25;;;;;;;3.43;0.90;;;-0.40;99.90;;;;;;5106852;28;20048;-79
2023/03/11 01:43:53;;;;;;;2.67;0.70;;;-0.40;99.90;;;;;;5142217;27;20126;-79
2023/03/11 01:46:24;;;;;;;2.27;0.80;;;-0.30;99.90;;;;;;5093207;28;20036;-80
2023/03/11 01:48:58;;;;;;;4.50;0.90;;;-0.40;99.90;;;;;;5102934;28;20033;-80
2023/03/11 01:51:35;;;;;;;3.07;0.73;;;-0.40;99.90;;;;;;5110617;28;20046;-80
2023/03/11 01:54:05;;;;;;;5.93;0.90;;;-0.40;99.90;;;;;;5107514;28;20071;-80
2023/03/11 01:56:32;;;;;;;4.10;0.90;;;-0.40;99.90;;;;;;5106585;28;20047;-80
2023/03/11 01:58:58;;;;;;;3.23;0.80;;;-0.40;99.90;;;;;;5110226;28;20128;-80
2023/03/11 02:01:24;;;;;;;2.70;0.73;;;-0.40;99.90;;;;;;5110337;28;20081;-80
2023/03/11 02:03:50;;;;;;;5.27;0.80;;;-0.40;99.90;;;;;;5111150;28;20132;-80
2023/03/11 02:06:22;;;;;;;3.33;1.00;;;-0.50;99.90;;;;;;5108460;28;20111;-80
2023/03/11 02:08:48;;;;;;;2.87;0.70;;;-0.50;99.90;;;;;;5086007;28;20594;-80
2023/03/11 02:11:18;;;;;;;3.33;0.80;;;-0.60;99.90;;;;;;5109392;28;20406;-80
2023/03/11 02:13:45;;;;;;;3.43;0.70;;;-0.70;99.90;;;;;;5113806;28;20115;-80
2023/03/11 02:16:12;;;;;;;4.30;0.90;;;-0.80;99.90;;;;;;5109168;28;20047;-80
2023/03/11 02:18:38;;;;;;;7.83;0.60;;;-0.80;99.90;;;;;;5109121;28;20098;-80
2023/03/11 02:21:19;;;;;;;4.03;0.90;;;-0.80;99.90;;;;;;5095646;28;20093;-80
2023/03/11 02:24:10;;;;;;;1.93;0.70;;;-0.80;99.90;;;;;;5105898;28;20039;-80
2023/03/11 02:26:51;;;;;;;3.13;0.77;;;-0.80;99.90;;;;;;5090754;28;20039;-80
2023/03/11 02:29:18;;;;;;;1.93;0.70;;;-0.90;99.90;;;;;;5092743;28;20043;-80
2023/03/11 02:31:44;;;;;;;2.27;0.73;;;-0.90;99.90;;;;;;5104384;28;20557;-80
2023/03/11 02:34:20;;;;;;;1.77;0.70;;;-1.00;99.90;;;;;;5108008;28;20084;-80
2023/03/11 02:36:45;;;;;;;2.57;0.77;;;-1.10;99.90;;;;;;5105540;28;20043;-80
2023/03/11 02:39:11;;;;;;;2.53;0.80;;;-1.20;99.90;;;;;;5113265;28;20047;-80
2023/03/11 02:41:39;;;;;;;3.37;0.70;;;-1.30;99.90;;;;;;5108022;28;20514;-80
2023/03/11 02:44:09;;;;;;;2.40;0.73;;;-1.40;99.90;;;;;;5107076;28;20039;-81
2023/03/11 02:46:37;;;;;;;3.73;0.80;;;-1.40;99.90;;;;;;5111255;28;20035;-81
2023/03/11 02:49:03;;;;;;;3.93;0.97;;;-1.50;99.90;;;;;;5107462;28;20090;-81
2023/03/11 02:51:29;;;;;;;2.67;1.13;;;-1.50;99.90;;;;;;5110263;28;20452;-81
2023/03/11 02:53:58;;;;;;;5.10;0.87;;;-1.50;99.90;;;;;;5146814;27;20042;-81
2023/03/11 02:56:24;;;;;;;3.80;0.90;;;-1.50;99.90;;;;;;5112274;28;20067;-81
2023/03/11 02:58:50;;;;;;;2.73;0.80;;;-1.40;99.90;;;;;;5106362;28;20067;-81
2023/03/11 03:01:15;;;;;;;2.50;0.70;;;-1.40;99.90;;;;;;5105640;28;20071;-81
2023/03/11 03:03:41;;;;;;;3.03;1.37;;;-1.40;99.90;;;;;;5093045;28;20042;-81
2023/03/11 03:06:06;;;;;;;6.90;0.90;;;-1.40;99.90;;;;;;5108452;28;20045;-81
2023/03/11 03:08:32;;;;;;;2.00;0.80;;;-1.40;99.90;;;;;;5090152;28;20032;-81
2023/03/11 03:10:58;;;;;;;4.10;0.80;;;-1.50;99.90;;;;;;5109724;28;20035;-81
2023/03/11 03:13:25;;;;;;;2.77;0.87;;;-1.60;99.90;;;;;;5108222;28;20511;-81
2023/03/11 03:15:51;;;;;;;2.63;0.80;;;-1.70;99.90;;;;;;5112218;28;20448;-81
2023/03/11 03:18:16;;;;;;;2.20;0.70;;;-1.80;99.90;;;;;;5112179;28;20040;-81
2023/03/11 03:20:42;;;;;;;1.93;0.80;;;-1.90;99.90;;;;;;5105195;28;20043;-81
2023/03/11 03:23:08;;;;;;;3.43;0.77;;;-1.90;99.90;;;;;;5107273;28;20404;-81
2023/03/11 03:25:33;;;;;;;2.50;1.07;;;-2.00;99.90;;;;;;5109696;28;20036;-81
2023/03/11 03:27:59;;;;;;;2.77;0.80;;;-2.10;99.90;;;;;;5111399;28;20088;-81
2023/03/11 03:30:24;;;;;;;4.07;0.80;;;-2.20;99.90;;;;;;5143166;27;20134;-81
2023/03/11 03:32:50;;;;;;;3.87;0.70;;;-2.20;99.90;;;;;;5106582;28;20134;-81
2023/03/11 03:35:15;;;;;;;1.20;0.67;;;-2.70;99.90;;;;;;5145474;27;20061;-81
2023/03/11 03:37:41;;;;;;;2.07;0.70;;;-2.30;99.90;;;;;;5110778;28;20043;-81
2023/03/11 03:40:08;;;;;;;1.67;0.70;;;-2.40;99.90;;;;;;5145754;27;20036;-81
2023/03/11 03:42:35;;;;;;;1.67;0.70;;;-2.50;99.90;;;;;;5106839;28;20085;-81
2023/03/11 03:45:01;;;;;;;2.37;0.97;;;-2.50;99.90;;;;;;5107249;28;20094;-81
2023/03/11 03:47:26;;;;;;;3.53;1.20;;;-2.60;99.90;;;;;;5106217;28;20043;-81
2023/03/11 03:49:52;;;;;;;4.93;0.80;;;-2.70;99.90;;;;;;5111884;28;20035;-81
2023/03/11 03:52:17;;;;;;;2.40;0.97;;;-2.60;99.90;;;;;;5142641;27;20123;-81
2023/03/11 03:54:43;;;;;;;4.30;0.83;;;-2.70;99.90;;;;;;5138382;27;20179;-81
2023/03/11 03:57:09;;;;;;;2.80;0.80;;;-2.70;99.90;;;;;;5138214;27;20122;-81
2023/03/11 03:59:34;;;;;;;2.57;0.90;;;-2.70;99.90;;;;;;5141135;27;20062;-81
2023/03/11 04:02:00;;;;;;;2.30;0.90;;;-2.70;99.90;;;;;;5137339;27;20402;-81
2023/03/11 04:04:26;;;;;;;3.60;1.20;;;-2.70;99.90;;;;;;5111187;28;20097;-81
2023/03/11 04:06:51;;;;;;;3.03;0.80;;;-2.70;99.90;;;;;;5105950;28;20165;-81
2023/03/11 04:09:17;;;;;;;2.67;0.73;;;-2.70;99.90;;;;;;5106033;28;20097;-82
2023/03/11 04:11:43;;;;;;;5.00;1.27;;;-2.70;99.90;;;;;;5109344;28;20036;-81
2023/03/11 04:14:09;;;;;;;1.73;0.80;;;-2.70;99.90;;;;;;5106305;28;20047;-81
2023/03/11 04:16:34;;;;;;;1.80;0.80;;;-2.70;99.90;;;;;;5109676;28;20043;-81
2023/03/11 04:19:00;;;;;;;2.43;0.80;;;-2.80;99.90;;;;;;5123656;27;20134;-81
2023/03/11 04:21:26;;;;;;;5.13;1.63;;;-2.80;99.90;;;;;;5109648;28;20122;-81
2023/03/11 04:23:51;;;;;;;3.13;1.30;;;-2.80;99.90;;;;;;5139844;27;20039;-82
2023/03/11 04:26:17;;;;;;;4.90;1.20;;;-2.90;99.90;;;;;;5105560;28;20579;-82
2023/03/11 04:28:42;;;;;;;2.77;1.20;;;-2.90;99.90;;;;;;5138744;27;20038;-82
2023/03/11 04:31:08;;;;;;;4.57;1.17;;;-2.90;99.90;;;;;;5123622;27;20138;-82
2023/03/11 04:33:34;;;;;;;4.60;1.10;;;-2.90;99.90;;;;;;5105625;28;20097;-82
2023/03/11 04:36:04;;;;;;;5.07;1.53;;;-2.90;99.90;;;;;;5109575;28;20096;-82
2023/03/11 04:38:29;;;;;;;5.73;1.30;;;-3.00;99.90;;;;;;5109152;28;20043;-82
2023/03/11 04:41:02;;;;;;;2.57;1.10;;;-2.90;99.90;;;;;;5139060;27;20039;-82
2023/03/11 04:43:28;;;;;;;6.10;1.13;;;-3.00;99.90;;;;;;5104716;28;20080;-82
2023/03/11 04:45:53;;;;;;;1.40;0.90;;;-3.00;99.90;;;;;;5138332;27;20301;-82
2023/03/11 04:48:19;;;;;;;4.57;1.67;;;-3.10;99.90;;;;;;5107609;28;20039;-82
2023/03/11 04:50:44;;;;;;;1.83;1.10;;;-3.10;99.90;;;;;;5122320;27;20036;-82
2023/03/11 04:53:10;;;;;;;2.60;1.10;;;-3.10;99.90;;;;;;5140148;27;20123;-82
2023/03/11 04:55:35;;;;;;;2.50;1.03;;;-3.10;99.90;;;;;;5104454;28;20078;-82
2023/03/11 04:58:01;;;;;;;2.07;1.17;;;-3.10;99.90;;;;;;5111943;28;20047;-82
2023/03/11 05:00:26;;;;;;;6.57;1.27;;;-3.20;99.90;;;;;;5143941;27;20035;-82
2023/03/11 05:02:52;;;;;;;1.90;1.10;;;-3.20;99.90;;;;;;5138159;27;20059;-82
2023/03/11 05:05:18;;;;;;;3.27;1.27;;;-3.30;99.90;;;;;;5138202;27;20036;-82
2023/03/11 05:07:44;;;;;;;3.87;1.13;;;-3.20;99.90;;;;;;5106831;28;20039;-82
2023/03/11 05:10:10;;;;;;;4.00;1.37;;;-3.30;99.90;;;;;;5111449;28;20028;-82
2023/03/11 05:12:36;;;;;;;3.70;1.20;;;-3.30;99.90;;;;;;5114529;28;20051;-82
2023/03/11 05:15:01;;;;;;;2.60;1.43;;;-3.30;99.90;;;;;;5115733;28;20531;-82
2023/03/11 05:17:27;;;;;;;3.07;1.27;;;-3.30;99.90;;;;;;5113425;28;20082;-82
2023/03/11 05:19:53;;;;;;;4.23;1.47;;;-3.30;99.90;;;;;;5106079;28;20035;-82
2023/03/11 05:22:19;;;;;;;3.63;1.30;;;-3.30;99.90;;;;;;5111699;28;20040;-82
2023/03/11 05:24:45;;;;;;;5.57;1.93;;;-3.30;99.90;;;;;;5109010;28;20037;-82
2023/03/11 05:27:11;;;;;;;5.37;1.43;;;-3.30;99.90;;;;;;5108510;28;20405;-82
2023/03/11 05:29:38;;;;;;;2.30;1.80;;;-3.30;99.90;;;;;;5111215;28;20039;-82
2023/03/11 05:32:04;;;;;;;4.13;1.47;;;-3.30;99.90;;;;;;5108276;28;20035;-82
2023/03/11 05:34:29;;;;;;;5.40;1.50;;;-3.30;99.90;;;;;;5115774;28;20093;-83
2023/03/11 05:36:55;;;;;;;5.40;1.23;;;-3.30;99.90;;;;;;5111493;28;20043;-83
2023/03/11 05:39:20;;;;;;;4.70;1.60;;;-3.30;99.90;;;;;;5108642;28;20044;-83
2023/03/11 05:41:46;;;;;;;2.27;1.30;;;-3.40;99.90;;;;;;5150044;27;20103;-83
2023/03/11 05:44:11;;;;;;;4.70;1.70;;;-3.40;99.90;;;;;;5110836;28;20119;-82
2023/03/11 05:46:37;;;;;;;3.73;1.40;;;-3.40;99.90;;;;;;5109407;28;20044;-83
2023/03/11 05:49:02;;;;;;;3.13;1.40;;;-3.40;99.90;;;;;;5107286;28;20499;-83
2023/03/11 05:51:28;;;;;;;4.57;1.60;;;-3.40;99.90;;;;;;5109708;28;20043;-83
2023/03/11 05:53:54;;;;;;;6.20;1.50;;;-3.40;99.90;;;;;;5108343;28;20050;-83
2023/03/11 05:56:21;;;;;;;2.80;1.47;;;-3.40;99.90;;;;;;5111365;28;20137;-83
2023/03/11 05:58:47;;;;;;;4.53;1.40;;;-3.40;99.90;;;;;;5093466;28;20450;-83
2023/03/11 06:01:16;;;;;;;6.37;1.30;;;-3.40;99.90;;;;;;5107644;28;20483;-83
2023/03/11 06:03:42;;;;;;;1.93;1.43;;;-2.60;99.90;;;;;;5106538;28;20055;-83
2023/03/11 06:06:10;;;;;;;8.63;1.60;;;-3.50;99.90;;;;;;5111224;28;20027;-83
2023/03/11 06:08:36;;;;;;;4.20;1.77;;;-3.50;99.90;;;;;;5109117;28;20434;-83
2023/03/11 06:11:07;;;;;;;3.00;1.40;;;-3.50;99.90;;;;;;5095608;28;20035;-83
2023/03/11 06:13:33;;;;;;;3.93;1.20;;;-3.40;99.90;;;;;;5112960;28;20096;-83
2023/03/11 06:15:59;;;;;;;4.40;1.60;;;-3.50;99.90;;;;;;5095851;28;20126;-83
2023/03/11 06:18:25;;;;;;;4.47;2.47;;;-3.50;99.90;;;;;;5088019;28;20047;-84
2023/03/11 06:20:51;;;;;;;3.93;1.20;;;-3.50;99.90;;;;;;5105725;28;20040;-84
2023/03/11 06:23:17;;;;;;;3.20;1.50;;;-3.40;99.90;;;;;;5109975;28;20071;-83
2023/03/11 06:25:43;;;;;;;3.00;1.37;;;-3.40;99.90;;;;;;5090023;28;20445;-84
2023/03/11 06:28:09;;;;;;;4.27;1.53;;;-3.40;99.90;;;;;;5142030;27;20028;-84
2023/03/11 06:30:34;;;;;;;6.67;2.10;;;-3.30;99.90;;;;;;5110830;28;20111;-84
2023/03/11 06:33:00;;;;;;;5.57;2.07;;;-3.30;99.90;;;;;;5095971;28;20039;-84
2023/03/11 06:35:25;;;;;;;4.17;1.70;;;-3.30;99.90;;;;;;5104315;28;20042;-84
2023/03/11 06:37:51;;;;;;;10.07;2.10;;;-3.20;99.90;;;;;;5113357;28;20071;-84
2023/03/11 06:40:17;;;;;;;6.93;1.80;;;-3.20;99.90;;;;;;5140202;27;20047;-85
2023/03/11 06:42:46;;;;;;;3.37;1.67;;;-3.20;99.90;;;;;;5108602;28;20031;-84
2023/03/11 06:45:11;;;;;;;5.70;1.93;;;-3.10;99.90;;;;;;5109013;28;20032;-84
2023/03/11 06:47:37;;;;;;;5.73;2.00;;;-3.00;99.90;;;;;;5111509;28;20039;-84
2023/03/11 06:50:05;;;;;;;3.80;1.80;;;-3.00;99.90;;;;;;5107471;28;20114;-84
2023/03/11 06:52:31;;;;;;;6.70;1.70;;;-2.90;99.90;;;;;;5105733;28;20506;-84
2023/03/11 06:54:56;;;;;;;7.10;1.93;;;-2.80;99.90;;;;;;5112452;28;20039;-85
2023/03/11 06:57:22;;;;;;;4.37;1.90;;;-2.60;99.90;;;;;;5108473;28;20036;-85
2023/03/11 06:59:48;;;;;;;3.77;1.53;;;-2.40;99.90;;;;;;5089028;28;20039;-84
2023/03/11 07:02:14;;;;;;;5.50;1.40;;;-2.50;99.90;;;;;;5112319;28;20092;-84
2023/03/11 07:04:39;;;;;;;5.10;1.80;;;-2.40;99.90;;;;;;5110435;28;20465;-84
2023/03/11 07:07:05;;;;;;;4.47;2.00;;;-2.40;99.90;;;;;;5105522;28;20406;-84
2023/03/11 07:09:30;;;;;;;3.97;1.87;;;-2.20;99.90;;;;;;5144849;27;20067;-84
2023/03/11 07:11:56;;;;;;;5.93;2.23;;;-2.10;99.90;;;;;;5110679;28;20044;-85
2023/03/11 07:14:22;;;;;;;7.87;2.00;;;-2.00;99.90;;;;;;5142757;27;20411;-85
2023/03/11 07:16:48;;;;;;;6.07;1.83;;;-1.90;99.90;;;;;;5103471;28;20093;-85
2023/03/11 07:19:14;;;;;;;5.63;1.80;;;-1.90;99.90;;;;;;5105458;28;20073;-85
2023/03/11 07:21:40;;;;;;;3.73;1.67;;;-1.70;99.90;;;;;;5102569;28;20036;-85
2023/03/11 07:24:06;;;;;;;5.97;2.00;;;-1.50;99.90;;;;;;5089978;28;20040;-85
2023/03/11 07:26:33;;;;;;;4.03;1.60;;;-1.40;99.90;;;;;;5109615;28;20059;-85
2023/03/11 07:29:00;;;;;;;5.47;1.90;;;-1.20;99.90;;;;;;5094458;28;20458;-85
2023/03/11 07:31:28;;;;;;;6.03;2.13;;;-1.00;99.90;;;;;;5106496;28;20448;-85
2023/03/11 07:33:56;;;;;;;4.57;1.60;;;-0.80;99.90;;;;;;5105590;28;20040;-84
2023/03/11 07:36:23;;;;;;;4.50;1.60;;;-0.70;99.90;;;;;;5104752;28;20440;-84
2023/03/11 07:38:57;;;;;;;3.17;1.70;;;-0.50;99.90;;;;;;5085056;28;20079;-85
2023/03/11 07:41:22;;;;;;;6.03;1.70;;;-0.30;99.90;;;;;;5104060;28;20032;-84
2023/03/11 07:43:48;;;;;;;5.73;1.60;;;-0.10;99.90;;;;;;5147245;27;20039;-84
2023/03/11 07:46:17;;;;;;;5.60;1.60;;;0.00;99.90;;;;;;5107285;28;20070;-84
2023/03/11 07:48:43;;;;;;;7.17;1.90;;;0.20;99.90;;;;;;5104197;28;20044;-84
2023/03/11 07:51:15;;;;;;;5.30;1.40;;;0.40;99.90;;;;;;5145911;27;20118;-84
2023/03/11 07:53:41;;;;;;;4.23;1.47;;;0.50;99.90;;;;;;5107995;28;20665;-84
2023/03/11 07:56:08;;;;;;;3.10;1.30;;;0.70;99.90;;;;;;5104206;28;20572;-84
2023/03/11 07:58:34;;;;;;;4.47;1.63;;;0.90;99.90;;;;;;5140929;27;20414;-84
2023/03/11 08:01:09;;;;;;;7.73;1.50;;;1.00;99.90;;;;;;5106001;28;20175;-84
2023/03/11 08:03:36;;;;;;;2.40;1.30;;;1.20;99.90;;;;;;5115518;28;20039;-84
2023/03/11 08:06:03;;;;;;;6.03;1.50;;;1.30;99.90;;;;;;5111377;28;20046;-84
2023/03/11 08:08:28;;;;;;;4.00;1.20;;;1.50;99.90;;;;;;5106065;28;20043;-83
2023/03/11 08:10:54;;;;;;;4.53;1.20;;;1.60;99.90;;;;;;5121601;27;20035;-83
2023/03/11 08:13:20;;;;;;;5.90;1.77;;;1.70;99.90;;;;;;5107784;28;20047;-83
2023/03/11 08:15:45;;;;;;;2.83;1.20;;;1.80;99.90;;;;;;5107071;28;20038;-83
2023/03/11 08:18:11;;;;;;;4.00;1.50;;;1.90;99.90;;;;;;5094226;28;20047;-82
2023/03/11 08:20:38;;;;;;;4.77;1.40;;;1.90;99.90;;;;;;5111194;28;20044;-83
2023/03/11 08:23:04;;;;;;;3.60;1.53;;;2.00;99.90;;;;;;5105235;28;20038;-82
2023/03/11 08:25:29;;;;;;;5.30;1.97;;;2.20;99.90;;;;;;5102757;28;20461;-83
2023/03/11 08:27:55;;;;;;;3.73;1.40;;;2.30;99.90;;;;;;5106694;28;20067;-82
2023/03/11 08:30:20;;;;;;;2.90;1.10;;;2.40;99.90;;;;;;5143099;27;20040;-82
2023/03/11 08:32:47;;;;;;;3.60;1.60;;;2.60;99.90;;;;;;5105336;28;20123;-82
2023/03/11 08:35:14;;;;;;;5.93;1.50;;;2.70;99.90;;;;;;5110484;28;20047;-82
2023/03/11 08:37:39;;;;;;;4.40;1.63;;;2.80;99.90;;;;;;5103422;28;20439;-82
2023/03/11 08:40:06;;;;;;;4.43;1.40;;;2.80;99.90;;;;;;5145284;27;20119;-82
2023/03/11 08:42:32;;;;;;;3.67;1.60;;;3.00;99.90;;;;;;5105463;28;20060;-82
2023/03/11 08:44:57;;;;;;;3.40;1.40;;;3.10;99.90;;;;;;5106476;28;20036;-82
2023/03/11 08:47:23;;;;;;;3.33;1.30;;;3.10;99.90;;;;;;5142074;27;20491;-82
2023/03/11 08:49:49;;;;;;;3.45;1.67;;;3.10;99.90;;;;;;5102894;28;20355;-82
2023/03/11 08:52:14;;;;;;;5.28;1.50;;;3.10;99.90;;;;;;5111817;28;20456;-82
2023/03/11 08:54:41;;;;;;;3.42;1.60;;;3.10;99.90;;;;;;5144612;27;20043;-83
2023/03/11 08:57:07;;;;;;;5.55;1.55;;;3.20;99.90;;;;;;5105779;28;20051;-82
2023/03/11 08:59:32;;;;;;;3.88;1.50;;;3.30;99.90;;;;;;5138209;27;20036;-81
2023/03/11 09:01:58;;;;;;;3.55;1.58;;;3.40;99.90;;;;;;5107171;28;20567;-81
2023/03/11 09:04:23;;;;;;;3.33;1.60;;;3.30;99.90;;;;;;5108742;28;20036;-81
2023/03/11 09:06:49;;;;;;;4.63;1.80;;;3.30;99.90;;;;;;5110062;28;20027;-81
2023/03/11 09:09:15;;;;;;;4.50;1.70;;;3.30;99.90;;;;;;5106637;28;20044;-80
2023/03/11 09:11:41;;;;;;;4.95;1.58;;;3.50;99.90;;;;;;5105532;28;20054;-80
2023/03/11 09:14:07;;;;;;;4.40;1.33;;;3.50;99.90;;;;;;5106628;28;20114;-80
2023/03/11 09:16:32;;;;;;;6.55;1.60;;;3.50;99.90;;;;;;5110698;28;20073;-80
2023/03/11 09:19:05;;;;;;;8.55;1.83;;;3.50;99.90;;;;;;5141868;27;20043;-79
2023/03/11 09:21:31;;;;;;;10.27;2.10;;;3.50;99.90;;;;;;5103957;28;20484;-79
2023/03/11 09:23:57;;;;;;;4.60;2.28;;;3.40;99.90;;;;;;5107024;28;20076;-79
2023/03/11 09:26:23;;;;;;;6.20;1.80;;;3.40;99.90;;;;;;5140563;27;20031;-79
2023/03/11 09:28:48;;;;;;;6.57;1.90;;;3.40;99.90;;;;;;5103413;28;20616;-79
2023/03/11 09:31:15;;;;;;;7.75;1.90;;;3.40;99.90;;;;;;5110381;28;20137;-79
2023/03/11 09:33:41;;;;;;;5.15;1.60;;;3.20;99.90;;;;;;5106349;28;20139;-79
2023/03/11 09:36:14;;;;;;;3.05;1.50;;;3.20;99.90;;;;;;5109186;28;20118;-79
2023/03/11 09:38:41;;;;;;;7.93;1.63;;;3.20;99.90;;;;;;5101620;28;20035;-79
2023/03/11 09:41:16;;;;;;;6.07;2.17;;;3.30;99.90;;;;;;5099305;28;20522;-77
2023/03/11 09:44:00;;;;;;;12.82;4.07;;;3.40;99.90;;;;;;5100504;28;20108;-78
2023/03/11 09:46:34;;;;;;;9.60;6.25;;;3.50;99.90;;;;;;5107397;28;20577;-79
2023/03/11 09:49:18;;;;;;;7.25;5.43;;;3.60;99.90;;;;;;5140647;27;20032;-78
2023/03/11 09:52:02;;;;;;;8.13;2.67;;;3.70;99.90;;;;;;5107084;28;20584;-79
2023/03/11 09:54:32;;;;;;;5.82;1.90;;;3.60;99.90;;;;;;5108961;28;20502;-79
2023/03/11 09:57:00;;;;;;;5.35;1.60;;;3.70;99.90;;;;;;5112556;28;20039;-80
2023/03/11 09:59:30;;;;;;;6.22;1.63;;;3.70;99.90;;;;;;5108285;28;20089;-79
2023/03/11 10:01:56;;;;;;;8.68;1.77;;;3.80;99.90;;;;;;5112922;28;20077;-80
2023/03/11 10:04:43;;;;;;;6.60;1.60;;;3.90;99.90;;;;;;5106745;28;20504;-81
2023/03/11 10:07:20;;;;;;;7.53;1.85;;;3.90;99.90;;;;;;5087610;28;20040;-81
2023/03/11 10:09:58;;;;;;;5.22;1.58;;;4.10;99.90;;;;;;5111745;28;20105;-82
2023/03/11 10:12:26;;;;;;;8.80;1.77;;;4.20;99.90;;;;;;5109380;28;20032;-80
2023/03/11 10:15:08;;;;;;;7.05;1.48;;;4.30;99.90;;;;;;5118568;28;20055;-79
2023/03/11 10:17:45;;;;;;;5.50;1.40;;;4.50;99.90;;;;;;5105691;28;20039;-81
2023/03/11 10:20:23;;;;;;;5.30;1.25;;;4.70;99.90;;;;;;5109427;28;20044;-81
2023/03/11 10:22:58;;;;;;;3.20;1.40;;;4.80;99.90;;;;;;5106066;28;20111;-80
2023/03/11 10:25:26;;;;;;;6.60;2.42;;;4.80;99.90;;;;;;5141477;27;20040;-80
2023/03/11 10:27:58;;;;;;;6.03;1.85;;;4.90;99.90;;;;;;5097960;28;20040;-81
2023/03/11 10:30:35;;;;;;;6.43;1.58;;;4.80;99.90;;;;;;5109183;28;20510;-82
2023/03/11 10:33:11;;;;;;;4.72;1.25;;;4.90;99.90;;;;;;5107750;28;20122;-83
2023/03/11 10:35:43;;;;;;;3.30;1.40;;;4.90;99.90;;;;;;5139864;27;20028;-83
2023/03/11 10:38:14;;;;;;;4.65;1.55;;;5.00;99.90;;;;;;5100154;28;20036;-83
2023/03/11 10:40:43;;;;;;;3.60;1.90;;;4.70;99.90;;;;;;5127523;27;20078;-84
2023/03/11 10:43:27;;;;;;;4.72;1.80;;;5.00;99.90;;;;;;5112941;28;20398;-83
2023/03/11 10:45:58;;;;;;;5.20;1.42;;;5.00;99.90;;;;;;5105635;28;20100;-81
2023/03/11 10:48:35;;;;;;;3.08;1.40;;;5.10;99.90;;;;;;5110547;28;20410;-82
2023/03/11 10:51:21;;;;;;;7.03;1.38;;;5.00;99.90;;;;;;5091170;28;20047;-82
2023/03/11 10:53:58;;;;;;;3.92;1.30;;;5.10;99.90;;;;;;5111798;28;20043;-82
2023/03/11 10:56:33;;;;;;;4.60;1.20;;;5.20;99.90;;;;;;5122761;27;20361;-82
2023/03/11 10:59:21;;;;;;;5.97;1.30;;;5.50;99.90;;;;;;5095437;28;20112;-82
2023/03/11 11:01:59;;;;;;;6.20;1.30;;;5.50;99.90;;;;;;5087744;28;20050;-83
2023/03/11 11:04:40;;;;;;;5.97;1.23;;;6.20;99.90;;;;;;5111806;28;20047;-83
2023/03/11 11:07:41;;;;;;;3.85;2.08;;;5.40;99.90;;;;;;5112053;28;20043;-82
2023/03/11 11:10:17;;;;;;;4.10;1.33;;;5.50;99.90;;;;;;5033514;28;20060;-82
2023/03/11 11:12:58;;;;;;;5.10;1.70;;;5.50;99.90;;;;;;5111021;27;20052;-82
2023/03/11 11:15:57;;;;;;;4.10;1.27;;;5.40;99.90;;;;;;5108769;28;20418;-80
2023/03/11 11:18:40;;;;;;;8.63;1.40;;;5.30;99.90;;;;;;5105077;28;20028;-81
2023/03/11 11:21:12;;;;;;;10.70;1.33;;;5.40;99.90;;;;;;5110887;28;20517;-81
2023/03/11 11:23:46;;;;;;;4.78;1.30;;;5.30;99.90;;;;;;5109010;28;20042;-81
2023/03/11 11:26:22;;;;;;;5.20;1.20;;;5.40;99.90;;;;;;5106821;28;20046;-81
2023/03/11 11:29:13;;;;;;;3.08;1.30;;;5.40;99.90;;;;;;5107813;28;20035;-80
2023/03/11 11:31:44;;;;;;;5.43;1.55;;;5.40;99.90;;;;;;5111134;28;20105;-81
2023/03/11 11:34:40;;;;;;;6.03;1.52;;;5.60;99.90;;;;;;5109457;28;20043;-81
2023/03/11 11:37:12;;;;;;;3.60;1.52;;;5.80;99.90;;;;;;5094575;28;20047;-83
2023/03/11 11:39:50;;;;;;;4.88;1.38;;;5.90;99.90;;;;;;5104854;28;20039;-84
2023/03/11 11:42:17;;;;;;;3.67;1.35;;;6.00;99.90;;;;;;5087210;28;20035;-84
2023/03/11 11:44:49;;;;;;;4.47;1.50;;;6.10;99.90;;;;;;5090900;28;20055;-84
2023/03/11 11:47:26;;;;;;;10.38;1.60;;;6.10;99.90;;;;;;5107605;28;20031;-84
2023/03/11 11:49:57;;;;;;;5.45;1.40;;;6.10;99.90;;;;;;5106188;28;20119;-84
2023/03/11 11:52:46;;;;;;;7.22;1.58;;;6.00;99.90;;;;;;5111698;28;20093;-84
2023/03/11 11:55:25;;;;;;;3.40;1.50;;;6.00;99.90;;;;;;5105286;28;20043;-86
2023/03/11 11:57:51;;;;;;;7.28;1.38;;;5.50;99.90;;;;;;5100297;28;20521;-84
2023/03/11 12:00:38;;;;;;;4.13;1.70;;;6.10;99.90;;;;;;5088645;28;20047;-84
2023/03/11 12:03:20;;;;;;;5.10;1.60;;;5.90;99.90;;;;;;5101604;28;20044;-84
2023/03/11 12:05:57;;;;;;;5.13;1.60;;;6.00;99.90;;;;;;5119745;27;20036;-84
2023/03/11 12:08:35;;;;;;;4.07;1.60;;;6.10;99.90;;;;;;5109349;28;20032;-82
2023/03/11 12:11:09;;;;;;;6.18;1.50;;;6.30;99.90;;;;;;5086503;28;20130;-84
2023/03/11 12:14:08;;;;;;;9.45;1.67;;;6.40;99.90;;;;;;5111156;28;20063;-84
2023/03/11 12:16:54;;;;;;;4.63;1.73;;;6.40;99.90;;;;;;5110326;28;20046;-83
2023/03/11 12:19:42;;;;;;;5.15;1.40;;;6.60;99.90;;;;;;5107086;28;20051;-85
2023/03/11 12:22:44;;;;;;;2.03;1.15;;;6.60;99.90;;;;;;5089735;28;20036;-85
2023/03/11 12:25:35;;;;;;;3.30;1.25;;;6.60;99.90;;;;;;5109022;28;20157;-84
2023/03/11 12:28:27;;;;;;;4.88;1.77;;;6.80;99.90;;;;;;5122663;27;20443;-84
2023/03/11 12:30:56;;;;;;;4.05;1.10;;;6.70;99.90;;;;;;5100715;28;20044;-84
2023/03/11 12:33:30;;;;;;;3.58;1.10;;;6.70;99.90;;;;;;5105626;28;20426;-84
2023/03/11 12:35:57;;;;;;;4.70;1.20;;;6.50;99.90;;;;;;5096551;28;20127;-84
2023/03/11 12:38:38;;;;;;;2.60;0.85;;;6.60;99.90;;;;;;5108644;27;20066;-83
2023/03/11 12:41:26;;;;;;;3.83;1.15;;;6.60;99.90;;;;;;5104329;28;20050;-83
2023/03/11 12:43:52;;;;;;;6.05;1.13;;;6.50;99.90;;;;;;5096113;28;20080;-84
2023/03/11 12:46:17;;;;;;;4.75;1.10;;;6.50;99.90;;;;;;5138269;27;20046;-84
2023/03/11 12:48:49;;;;;;;7.03;1.42;;;6.50;99.90;;;;;;5107357;28;20035;-84
2023/03/11 12:51:37;;;;;;;2.50;1.20;;;6.60;99.90;;;;;;5105523;28;20525;-83
2023/03/11 12:54:29;;;;;;;3.45;0.93;;;6.60;99.90;;;;;;5119737;27;20383;-83
2023/03/11 12:57:02;;;;;;;6.35;1.10;;;6.80;99.90;;;;;;5086072;28;20119;-83
2023/03/11 13:00:16;;;;;;;3.38;1.00;;;6.70;99.90;;;;;;5106804;28;20046;-83
2023/03/11 13:03:19;;;;;;;2.00;0.93;;;7.00;99.90;;;;;;5012015;28;20041;-82